Time;durP1;ratioP1;P1;durP2;ratioP2;P2;SDS_P1;SDS_P2;PMS_P1;PMS_P2;Temp;Humidity;BMP_temperature;BMP_pressure;BME280_temperature;BME280_humidity;BME280_pressure;Samples;Min_cycle;Max_cycle;Signal;HPM_P1;HPM_P2
2024/01/09 00:00:10;;;;;;;20.50;10.50;;;;;;;-3.13;51.62;101905.97;4228947;28;20071;-62
2024/01/09 00:02:12;;;;;;;16.50;9.65;;;;;;;-3.18;51.73;101902.13;4229493;28;20085;-62
2024/01/09 00:04:16;;;;;;;17.77;9.82;;;;;;;-3.20;51.98;101903.59;4230815;28;20565;-61
2024/01/09 00:06:20;;;;;;;20.50;9.82;;;;;;;-3.14;51.53;101913.44;4233443;27;20126;-60
2024/01/09 00:08:23;;;;;;;17.83;9.50;;;;;;;-3.08;50.74;101904.75;4237496;27;20046;-61
2024/01/09 00:10:27;;;;;;;19.77;11.15;;;;;;;-3.18;51.21;101915.72;4230800;28;20082;-61
2024/01/09 00:12:30;;;;;;;22.27;11.35;;;;;;;-3.16;52.10;101908.22;4229448;28;20081;-61
2024/01/09 00:14:32;;;;;;;17.38;10.20;;;;;;;-3.05;51.01;101899.03;4229044;28;20039;-61
2024/01/09 00:16:36;;;;;;;19.90;10.27;;;;;;;-3.19;51.15;101908.81;4226874;28;20355;-61
2024/01/09 00:18:38;;;;;;;21.83;11.63;;;;;;;-3.06;50.73;101907.44;4228705;28;20063;-62
2024/01/09 00:20:43;;;;;;;17.88;10.30;;;;;;;-3.21;50.86;101907.81;4227135;28;21378;-62
2024/01/09 00:22:46;;;;;;;19.35;9.88;;;;;;;-3.31;51.63;101899.16;4229534;28;20474;-61
2024/01/09 00:24:49;;;;;;;17.63;10.48;;;;;;;-3.26;51.12;101903.91;4211764;28;20074;-63
2024/01/09 00:26:51;;;;;;;19.48;11.15;;;;;;;-3.18;51.08;101905.53;4228416;28;20102;-61
2024/01/09 00:28:54;;;;;;;16.85;10.05;;;;;;;-3.21;50.91;101910.34;4230216;28;20062;-60
2024/01/09 00:30:57;;;;;;;20.23;10.70;;;;;;;-3.27;50.78;101903.78;4229453;28;20549;-61
2024/01/09 00:33:00;;;;;;;20.55;10.10;;;;;;;-3.33;51.25;101901.56;4230551;28;20032;-60
2024/01/09 00:35:04;;;;;;;19.98;10.00;;;;;;;-3.21;50.74;101900.16;4230647;28;20043;-61
2024/01/09 00:37:08;;;;;;;20.42;10.63;;;;;;;-3.35;51.36;101908.16;4229276;28;20088;-61
2024/01/09 00:39:11;;;;;;;19.73;10.80;;;;;;;-3.53;51.45;101910.78;4230396;28;20405;-62
2024/01/09 00:41:14;;;;;;;20.52;10.77;;;;;;;-3.48;51.47;101908.66;4228690;28;20039;-62
2024/01/09 00:43:17;;;;;;;21.50;11.63;;;;;;;-3.33;51.41;101904.09;4230375;28;20036;-61
2024/01/09 00:45:19;;;;;;;18.55;11.23;;;;;;;-3.35;51.04;101908.16;4229079;28;20043;-62
2024/01/09 00:47:22;;;;;;;17.23;9.75;;;;;;;-3.49;51.58;101903.44;4228907;28;20035;-62
2024/01/09 00:49:25;;;;;;;20.45;10.35;;;;;;;-3.45;51.59;101906.41;4229078;28;20101;-62
2024/01/09 00:51:28;;;;;;;18.77;10.40;;;;;;;-3.38;51.97;101901.13;4228968;28;20063;-62
2024/01/09 00:53:33;;;;;;;21.58;10.45;;;;;;;-3.43;51.97;101907.44;4229381;28;20431;-62
2024/01/09 00:55:36;;;;;;;18.17;9.55;;;;;;;-3.38;52.40;101900.25;4228942;28;20122;-62
2024/01/09 00:57:38;;;;;;;16.75;9.63;;;;;;;-3.22;51.40;101905.13;4229979;28;20067;-63
2024/01/09 00:59:41;;;;;;;18.25;10.13;;;;;;;-3.26;50.74;101909.00;4239230;27;20071;-62
2024/01/09 01:01:49;;;;;;;21.50;10.73;;;;;;;-3.29;50.67;101910.38;4229232;28;20055;-62
2024/01/09 01:03:52;;;;;;;17.77;9.30;;;;;;;-3.39;51.05;101909.53;4239919;27;20039;-62
2024/01/09 01:05:55;;;;;;;19.70;10.60;;;;;;;-3.34;50.54;101908.31;4224834;28;20044;-62
2024/01/09 01:07:58;;;;;;;20.08;10.98;;;;;;;-3.42;50.46;101914.31;4228955;28;20075;-62
2024/01/09 01:10:03;;;;;;;19.42;10.27;;;;;;;-3.40;50.48;101911.91;4226886;28;20040;-62
2024/01/09 01:12:06;;;;;;;;;;;;;;;-3.51;51.26;101909.25;4229974;28;20039;-62
2024/01/09 01:14:08;;;;;;;18.42;9.07;;;;;;;-3.46;51.21;101908.78;4212903;28;19924;-62
2024/01/09 01:16:11;;;;;;;18.60;9.50;;;;;;;-3.44;51.49;101910.75;4228976;28;20050;-62
2024/01/09 01:18:14;;;;;;;16.65;9.10;;;;;;;-3.43;51.06;101916.72;4228092;28;20497;-62
2024/01/09 01:20:17;;;;;;;18.13;9.75;;;;;;;-3.33;50.82;101915.19;4229442;28;20040;-62
2024/01/09 01:22:20;;;;;;;18.63;10.82;;;;;;;-3.16;49.92;101924.38;4229626;28;20164;-62
2024/01/09 01:24:23;;;;;;;20.15;11.23;;;;;;;-3.11;49.83;101919.72;4227807;28;20476;-61
2024/01/09 01:26:29;;;;;;;20.73;10.68;;;;;;;-3.12;49.49;101927.22;4226887;28;20081;-63
2024/01/09 01:28:32;;;;;;;20.63;10.23;;;;;;;-3.27;50.21;101919.03;4220392;28;20044;-61
2024/01/09 01:30:35;;;;;;;19.27;9.20;;;;;;;-3.39;50.90;101923.88;4242661;27;20556;-60
2024/01/09 01:32:37;;;;;;;19.42;10.48;;;;;;;-3.33;50.63;101922.81;4227941;28;20050;-60
2024/01/09 01:34:40;;;;;;;20.85;10.13;;;;;;;-3.33;50.23;101924.44;4211283;28;20044;-62
2024/01/09 01:36:43;;;;;;;19.20;9.93;;;;;;;-3.16;49.97;101919.28;4226482;28;20128;-61
2024/01/09 01:38:46;;;;;;;19.70;10.13;;;;;;;-3.27;50.34;101919.97;4227742;28;20067;-60
2024/01/09 01:40:49;;;;;;;20.80;9.45;;;;;;;-3.29;50.64;101920.56;4228406;28;20035;-61
2024/01/09 01:42:56;;;;;;;17.45;10.65;;;;;;;-3.25;50.26;101920.97;4238461;27;20031;-61
2024/01/09 01:44:59;;;;;;;18.58;10.32;;;;;;;-3.31;49.94;101915.34;4231561;28;20067;-60
2024/01/09 01:47:02;;;;;;;16.75;9.50;;;;;;;-3.34;50.95;101918.47;4228387;28;20143;-61
2024/01/09 01:49:05;;;;;;;21.77;10.40;;;;;;;-3.27;50.38;101912.31;4228000;28;20112;-61
2024/01/09 01:51:08;;;;;;;18.17;10.60;;;;;;;-3.33;50.41;101916.81;4211346;28;20097;-61
2024/01/09 01:53:11;;;;;;;17.85;9.77;;;;;;;-3.33;51.12;101914.28;4230637;28;20071;-60
2024/01/09 01:55:18;;;;;;;19.10;10.10;;;;;;;-3.30;50.77;101906.97;4228730;28;20112;-61
2024/01/09 01:57:21;;;;;;;20.75;11.05;;;;;;;-3.35;50.65;101906.50;4228901;28;20059;-61
2024/01/09 01:59:25;;;;;;;21.58;10.93;;;;;;;-3.41;50.40;101911.03;4229580;28;20036;-61
2024/01/09 02:01:29;;;;;;;17.90;9.27;;;;;;;-3.21;50.32;101909.47;4224148;28;20036;-62
2024/01/09 02:03:32;;;;;;;16.20;9.32;;;;;;;-3.37;50.36;101899.50;4228087;28;20131;-62
2024/01/09 02:05:36;;;;;;;17.70;9.05;;;;;;;-3.29;49.89;101906.19;4229643;28;20047;-62
2024/01/09 02:07:42;;;;;;;19.33;10.60;;;;;;;-3.38;49.91;101911.31;4229097;28;20040;-61
2024/01/09 02:09:45;;;;;;;20.95;10.07;;;;;;;-3.37;50.15;101909.69;4227665;28;20047;-60
2024/01/09 02:11:49;;;;;;;18.75;10.65;;;;;;;-3.48;51.23;101908.66;4229097;28;20130;-62
2024/01/09 02:13:51;;;;;;;16.10;9.40;;;;;;;-3.46;51.57;101911.34;4230260;28;20123;-61
2024/01/09 02:15:56;;;;;;;19.83;10.13;;;;;;;-3.28;50.34;101907.97;4226480;28;20095;-62
2024/01/09 02:17:59;;;;;;;18.27;8.93;;;;;;;-3.25;50.21;101898.09;4227607;28;20485;-60
2024/01/09 02:20:01;;;;;;;17.90;9.35;;;;;;;-3.37;50.68;101896.97;4225963;28;20036;-61
2024/01/09 02:22:04;;;;;;;18.00;9.93;;;;;;;-3.45;50.87;101897.88;4229034;28;20560;-61
2024/01/09 02:24:07;;;;;;;15.70;8.90;;;;;;;-3.47;49.97;101894.31;4229104;28;20031;-62
2024/01/09 02:26:11;;;;;;;14.23;8.15;;;;;;;-3.36;50.67;101898.72;4226321;28;20489;-63
2024/01/09 02:28:41;;;;;;;19.52;10.15;;;;;;;-3.47;51.08;101895.19;4226297;28;20146;-62
2024/01/09 02:30:46;;;;;;;20.85;9.00;;;;;;;-3.41;50.81;101897.44;4226172;28;20103;-62
2024/01/09 02:32:51;;;;;;;16.88;9.65;;;;;;;-3.49;50.72;101895.81;4227133;28;20039;-61
2024/01/09 02:34:54;;;;;;;18.27;9.88;;;;;;;-3.59;51.08;101894.94;4232429;28;20035;-63
2024/01/09 02:36:57;;;;;;;16.67;9.63;;;;;;;-3.51;51.74;101896.53;4232380;28;20394;-62
2024/01/09 02:39:00;;;;;;;18.25;9.45;;;;;;;-3.47;51.18;101897.75;4232297;28;20485;-63
2024/01/09 02:41:04;;;;;;;20.38;9.73;;;;;;;-3.56;51.29;101894.34;4231017;28;20036;-62
2024/01/09 02:43:07;;;;;;;18.40;9.90;;;;;;;-3.62;51.34;101884.50;4230826;28;20484;-61
2024/01/09 02:45:10;;;;;;;16.88;9.05;;;;;;;-3.56;52.56;101889.28;4231343;28;20603;-64
2024/01/09 02:47:14;;;;;;;15.60;8.60;;;;;;;-3.61;52.13;101887.91;4229857;28;20531;-62
2024/01/09 02:49:17;;;;;;;15.27;6.95;;;;;;;-3.38;51.64;101885.00;4232337;28;20421;-63
2024/01/09 02:51:20;;;;;;;17.63;8.75;;;;;;;-3.57;51.60;101878.19;4231189;28;20043;-61
2024/01/09 02:53:22;;;;;;;22.08;9.52;;;;;;;-3.42;51.57;101878.72;4231128;28;20039;-61
2024/01/09 02:55:25;;;;;;;17.98;9.13;;;;;;;-3.69;51.99;101884.66;4218905;28;20120;-61
2024/01/09 02:57:27;;;;;;;21.00;10.13;;;;;;;-3.59;52.37;101881.31;4222149;28;20035;-62
2024/01/09 02:59:30;;;;;;;17.88;9.35;;;;;;;-3.67;51.93;101878.06;4225424;28;20043;-60
2024/01/09 03:01:33;;;;;;;18.45;8.32;;;;;;;-3.70;53.01;101876.13;4239822;27;20039;-59
2024/01/09 03:03:37;;;;;;;16.10;10.13;;;;;;;-3.81;52.70;101881.88;4230871;28;20455;-62
2024/01/09 03:05:40;;;;;;;15.48;8.35;;;;;;;-3.74;53.39;101871.53;4231040;28;20039;-61
2024/01/09 03:07:43;;;;;;;17.83;8.63;;;;;;;-3.72;53.51;101876.75;4230599;28;20048;-62
2024/01/09 03:09:45;;;;;;;18.40;8.90;;;;;;;-3.71;53.20;101879.44;4231914;28;20047;-61
2024/01/09 03:11:48;;;;;;;15.90;8.55;;;;;;;-3.67;53.08;101883.16;4231820;27;20146;-62
2024/01/09 03:13:51;;;;;;;20.88;9.30;;;;;;;-3.70;53.23;101876.13;4230671;27;20050;-61
2024/01/09 03:15:54;;;;;;;16.27;8.82;;;;;;;-3.81;53.24;101880.94;4231753;28;20408;-61
2024/01/09 03:17:57;;;;;;;16.42;8.00;;;;;;;-3.77;53.39;101883.91;4228741;28;20147;-62
2024/01/09 03:20:02;;;;;;;16.75;9.10;;;;;;;-3.97;53.00;101882.06;4231657;28;20480;-62
2024/01/09 03:22:04;;;;;;;16.35;9.25;;;;;;;-3.98;53.31;101894.59;4233143;27;20046;-62
2024/01/09 03:24:07;;;;;;;15.05;8.35;;;;;;;-3.93;53.04;101890.84;4231637;28;20032;-62
2024/01/09 03:26:09;;;;;;;16.60;8.40;;;;;;;-3.94;52.83;101895.03;4227972;28;20059;-62
2024/01/09 03:28:12;;;;;;;15.13;8.73;;;;;;;-4.01;53.57;101892.66;4226855;28;20047;-62
2024/01/09 03:30:14;;;;;;;18.58;9.23;;;;;;;-3.86;53.40;101889.03;4231431;28;20142;-62
2024/01/09 03:32:17;;;;;;;17.23;8.82;;;;;;;-3.85;53.64;101889.94;4231136;28;20097;-62
2024/01/09 03:34:20;;;;;;;15.13;8.05;;;;;;;-3.96;53.95;101883.81;4229776;28;20546;-62
2024/01/09 03:36:24;;;;;;;15.95;8.18;;;;;;;-3.94;53.30;101895.03;4232414;28;20042;-62
2024/01/09 03:38:27;;;;;;;15.32;8.27;;;;;;;-3.89;53.95;101883.66;4230525;28;20039;-62
2024/01/09 03:40:30;;;;;;;15.15;7.95;;;;;;;-3.95;53.10;101885.63;4226936;28;20520;-62
2024/01/09 03:42:48;;;;;;;16.85;8.15;;;;;;;-3.87;53.08;101879.63;4231185;28;20444;-62
2024/01/09 03:44:51;;;;;;;16.75;8.68;;;;;;;-3.92;54.29;101885.91;4231286;28;20035;-61
2024/01/09 03:46:54;;;;;;;17.98;8.80;;;;;;;-3.90;53.35;101889.50;4231118;28;20092;-61
2024/01/09 03:48:57;;;;;;;18.45;9.43;;;;;;;-3.90;53.47;101881.88;4230363;28;20040;-61
2024/01/09 03:51:00;;;;;;;16.17;8.75;;;;;;;-4.00;54.54;101883.38;4228249;28;20086;-61
2024/01/09 03:53:04;;;;;;;16.27;8.32;;;;;;;-3.86;54.22;101888.16;4232295;28;20067;-61
2024/01/09 03:55:07;;;;;;;16.73;8.10;;;;;;;-3.96;53.94;101891.44;4230263;28;20392;-61
2024/01/09 03:57:10;;;;;;;20.08;9.43;;;;;;;-3.78;53.64;101886.31;4229597;28;20036;-60
2024/01/09 03:59:13;;;;;;;16.48;8.35;;;;;;;-3.90;54.36;101888.59;4230593;28;20548;-61
2024/01/09 04:01:16;;;;;;;15.35;7.97;;;;;;;-3.96;53.76;101888.91;4228758;28;20420;-61
2024/01/09 04:03:19;;;;;;;17.20;7.95;;;;;;;-3.95;54.79;101890.69;4230191;28;20047;-59
2024/01/09 04:05:22;;;;;;;17.55;9.10;;;;;;;-3.94;54.35;101878.88;4230921;28;20397;-62
2024/01/09 04:07:25;;;;;;;15.75;8.55;;;;;;;-3.99;54.93;101888.59;4229491;28;20122;-62
2024/01/09 04:09:29;;;;;;;15.23;8.70;;;;;;;-4.03;55.18;101886.53;4229096;28;20035;-61
2024/01/09 04:11:32;;;;;;;15.40;9.00;;;;;;;-4.11;54.75;101900.16;4228561;28;20039;-62
2024/01/09 04:13:35;;;;;;;14.60;7.55;;;;;;;-4.17;54.91;101886.88;4230812;28;20096;-62
2024/01/09 04:15:39;;;;;;;18.17;8.38;;;;;;;-4.21;55.11;101888.19;4226932;28;20180;-63
2024/01/09 04:17:42;;;;;;;15.48;8.65;;;;;;;-4.12;55.76;101888.19;4224164;28;20048;-63
2024/01/09 04:19:45;;;;;;;14.82;7.47;;;;;;;-3.99;54.00;101880.09;4230703;28;20039;-65
2024/01/09 04:21:48;;;;;;;13.90;7.85;;;;;;;-4.11;54.26;101885.78;4227700;28;20059;-62
2024/01/09 04:23:51;;;;;;;17.63;8.15;;;;;;;-3.98;54.96;101887.88;4226390;28;20051;-63
2024/01/09 04:25:54;;;;;;;17.80;8.15;;;;;;;-3.78;54.13;101882.16;4229076;28;20370;-63
2024/01/09 04:27:57;;;;;;;14.85;8.38;;;;;;;-3.93;53.33;101889.22;4229027;27;20092;-63
2024/01/09 04:30:00;;;;;;;16.02;8.65;;;;;;;-4.09;54.59;101884.31;4230289;28;20119;-63
2024/01/09 04:32:04;;;;;;;16.00;8.10;;;;;;;-4.11;54.33;101888.34;4228896;28;20039;-63
2024/01/09 04:34:07;;;;;;;15.30;8.77;;;;;;;-3.47;61.12;101889.22;4231431;28;20497;-63
2024/01/09 04:36:16;;;;;;;15.23;7.93;;;;;;;-3.56;56.41;101890.16;4212423;28;20040;-63
2024/01/09 04:38:18;;;;;;;15.82;7.85;;;;;;;-3.72;56.03;101886.94;4228356;28;20070;-63
2024/01/09 04:40:21;;;;;;;15.00;7.63;;;;;;;-3.83;55.34;101888.44;4229822;28;20047;-62
2024/01/09 04:42:26;;;;;;;15.13;8.68;;;;;;;-3.81;54.71;101891.13;4230529;28;20445;-63
2024/01/09 04:44:29;;;;;;;15.50;8.98;;;;;;;-3.81;55.13;101901.28;4236091;27;20098;-62
2024/01/09 04:46:32;;;;;;;14.55;8.63;;;;;;;-4.00;54.57;101888.47;4230015;27;20043;-66
2024/01/09 04:48:34;;;;;;;17.23;8.57;;;;;;;-4.05;55.21;101891.47;4230646;28;20032;-64
2024/01/09 04:50:37;;;;;;;18.92;8.98;;;;;;;-4.11;56.16;101884.91;4228668;28;20408;-64
2024/01/09 04:52:40;;;;;;;13.50;8.13;;;;;;;-4.16;55.31;101886.09;4227788;27;20039;-65
2024/01/09 04:54:43;;;;;;;14.68;8.18;;;;;;;-4.26;57.00;101890.31;4228590;28;20062;-65
2024/01/09 04:56:45;;;;;;;18.63;8.60;;;;;;;-4.18;56.61;101882.53;4228693;28;20536;-65
2024/01/09 04:58:53;;;;;;;21.83;9.00;;;;;;;-4.22;56.25;101891.47;4229489;28;20055;-65
2024/01/09 05:00:56;;;;;;;15.63;8.48;;;;;;;-4.18;55.64;101892.69;4230451;28;20032;-65
2024/01/09 05:02:59;;;;;;;16.65;8.13;;;;;;;-4.17;55.98;101886.88;4229047;28;20031;-63
2024/01/09 05:05:03;;;;;;;17.40;9.55;;;;;;;-4.13;56.09;101888.94;4229929;28;20610;-62
2024/01/09 05:07:06;;;;;;;18.88;8.57;;;;;;;-4.26;56.52;101887.75;4230515;28;20127;-62
2024/01/09 05:09:09;;;;;;;22.25;9.30;;;;;;;-4.14;56.10;101884.63;4230782;28;20464;-62
2024/01/09 05:11:12;;;;;;;13.45;7.93;;;;;;;-4.26;55.64;101885.22;4230599;28;20067;-63
2024/01/09 05:13:20;;;;;;;18.73;8.52;;;;;;;-4.21;55.42;101895.81;4229772;28;20563;-62
2024/01/09 05:15:25;;;;;;;23.10;8.75;;;;;;;-4.12;55.90;101890.72;4230906;28;20040;-62
2024/01/09 05:17:27;;;;;;;15.18;7.93;;;;;;;-4.27;55.69;101891.03;4229578;28;20167;-62
2024/01/09 05:19:30;;;;;;;16.92;8.73;;;;;;;-4.23;55.96;101885.50;4230975;28;20058;-62
2024/01/09 05:21:34;;;;;;;15.60;7.57;;;;;;;-4.27;56.18;101888.50;4229792;28;20447;-62
2024/01/09 05:23:37;;;;;;;19.63;9.55;;;;;;;-4.20;55.36;101887.47;4231194;27;20044;-62
2024/01/09 05:25:39;;;;;;;17.55;8.05;;;;;;;-4.25;55.87;101889.56;4230985;28;20086;-62
2024/01/09 05:27:42;;;;;;;18.40;9.50;;;;;;;-4.11;55.17;101887.44;4228030;28;20040;-62
2024/01/09 05:29:45;;;;;;;16.27;8.68;;;;;;;-4.19;55.62;101890.88;4230820;28;20405;-62
2024/01/09 05:31:49;;;;;;;20.60;9.13;;;;;;;-4.37;56.07;101885.81;4229502;28;20528;-62
2024/01/09 05:33:52;;;;;;;19.33;9.80;;;;;;;-4.30;56.25;101887.31;4212741;28;20044;-62
2024/01/09 05:35:54;;;;;;;18.70;9.18;;;;;;;-4.36;56.69;101884.19;4229520;28;20035;-62
2024/01/09 05:37:57;;;;;;;15.40;7.93;;;;;;;-4.28;56.19;101880.75;4230101;28;20461;-64
2024/01/09 05:40:17;;;;;;;13.50;7.88;;;;;;;-4.36;56.83;101884.19;4230928;28;20048;-63
2024/01/09 05:42:19;;;;;;;19.07;9.13;;;;;;;-4.36;56.83;101885.09;4228546;28;20070;-63
2024/01/09 05:44:22;;;;;;;17.35;9.18;;;;;;;-4.28;56.60;101881.66;4237945;28;20287;-65
2024/01/09 05:46:24;;;;;;;17.10;9.13;;;;;;;-4.21;56.37;101890.75;4230999;28;20393;-63
2024/01/09 05:48:28;;;;;;;17.35;8.32;;;;;;;-4.17;54.96;101882.69;4229935;28;20055;-63
2024/01/09 05:50:32;;;;;;;19.67;8.85;;;;;;;-4.29;55.93;101884.94;4216458;28;20043;-62
2024/01/09 05:52:35;;;;;;;15.10;8.50;;;;;;;-4.28;55.49;101889.28;4229106;28;20129;-62
2024/01/09 05:54:38;;;;;;;16.77;8.90;;;;;;;-4.35;55.81;101889.41;4229220;28;20036;-62
2024/01/09 05:56:40;;;;;;;19.63;9.52;;;;;;;-4.40;55.96;101894.03;4228443;28;20067;-62
2024/01/09 05:58:43;;;;;;;15.80;8.75;;;;;;;-4.42;56.80;101892.09;4227712;28;20047;-62
2024/01/09 06:00:45;;;;;;;17.70;8.52;;;;;;;-4.33;56.72;101887.91;4230637;28;20082;-62
2024/01/09 06:02:48;;;;;;;18.48;8.73;;;;;;;-4.26;56.80;101889.41;4230813;28;20067;-61
2024/01/09 06:04:52;;;;;;;17.95;8.30;;;;;;;-4.26;57.31;101897.91;4231013;28;20469;-62
2024/01/09 06:06:55;;;;;;;19.48;9.18;;;;;;;-4.35;56.55;101891.97;4226713;28;20036;-62
2024/01/09 06:09:13;;;;;;;13.15;7.82;;;;;;;-4.33;56.83;101887.91;4233170;27;20047;-61
2024/01/09 06:11:16;;;;;;;18.98;7.55;;;;;;;-4.27;57.39;101893.56;4232633;28;20040;-62
2024/01/09 06:13:20;;;;;;;13.10;8.05;;;;;;;-4.27;57.00;101898.66;4231904;28;20590;-62
2024/01/09 06:15:22;;;;;;;15.93;7.90;;;;;;;-4.25;56.70;101892.09;4233755;28;20063;-62
2024/01/09 06:17:25;;;;;;;16.30;8.60;;;;;;;-4.22;55.57;101896.56;4233467;28;20101;-61
2024/01/09 06:19:27;;;;;;;20.50;8.82;;;;;;;-4.09;54.75;101898.63;4233191;28;20042;-62
2024/01/09 06:21:32;;;;;;;18.83;9.07;;;;;;;-4.31;55.81;101899.09;4225561;28;20160;-62
2024/01/09 06:23:35;;;;;;;18.40;8.18;;;;;;;-4.28;56.01;101901.03;4231177;28;20044;-62
2024/01/09 06:25:38;;;;;;;13.73;7.95;;;;;;;-4.28;54.87;101904.50;4239768;27;20039;-63
2024/01/09 06:27:41;;;;;;;18.02;9.32;;;;;;;-4.36;55.55;101913.00;4231275;28;20032;-63
2024/01/09 06:29:44;;;;;;;21.27;9.23;;;;;;;-4.40;55.04;101910.91;4232311;28;20047;-63
2024/01/09 06:31:47;;;;;;;18.38;8.70;;;;;;;-4.43;55.84;101910.63;4235849;27;20093;-63
2024/01/09 06:33:50;;;;;;;19.05;10.25;;;;;;;-4.14;56.47;101904.94;4245087;27;20045;-62
2024/01/09 06:35:53;;;;;;;16.25;8.32;;;;;;;-4.18;56.27;101907.91;4245935;27;20028;-63
2024/01/09 06:37:57;;;;;;;15.32;8.35;;;;;;;-4.25;56.66;101904.78;4233106;28;20509;-63
2024/01/09 06:39:59;;;;;;;17.63;9.15;;;;;;;-4.19;57.04;101908.66;4233993;28;20446;-63
2024/01/09 06:42:02;;;;;;;18.23;9.02;;;;;;;-4.23;57.31;101902.41;4233549;28;20153;-63
2024/01/09 06:44:05;;;;;;;17.45;9.45;;;;;;;-4.25;56.88;101902.25;4232496;28;20035;-63
2024/01/09 06:46:08;;;;;;;19.35;9.52;;;;;;;-4.14;55.42;101894.78;4233263;28;20085;-63
2024/01/09 06:48:11;;;;;;;18.08;9.15;;;;;;;-4.23;55.47;101895.66;4233070;28;20412;-63
2024/01/09 06:50:14;;;;;;;14.77;8.45;;;;;;;-4.28;55.58;101896.88;4233433;28;20586;-62
2024/01/09 06:52:35;;;;;;;14.65;8.02;;;;;;;-4.32;56.37;101904.94;4232586;28;20039;-63
2024/01/09 06:54:39;;;;;;;17.75;10.07;;;;;;;-4.26;55.08;101895.38;4223415;28;20048;-61
2024/01/09 06:56:44;;;;;;;16.85;8.60;;;;;;;-4.36;55.91;101902.84;4232892;28;20480;-62
2024/01/09 06:58:47;;;;;;;18.08;8.63;;;;;;;-4.28;55.46;101912.13;4231802;28;20039;-62
2024/01/09 07:00:54;;;;;;;14.93;8.00;;;;;;;-4.33;55.58;101908.22;4233074;28;20453;-62
2024/01/09 07:02:56;;;;;;;19.05;9.43;;;;;;;-4.29;55.50;101905.25;4235408;27;20518;-62
2024/01/09 07:05:00;;;;;;;16.60;9.27;;;;;;;-4.19;54.92;101904.50;4233596;27;20394;-62
2024/01/09 07:07:03;;;;;;;13.75;7.82;;;;;;;-4.22;55.47;101902.56;4231698;28;20027;-62
2024/01/09 07:09:06;;;;;;;21.75;9.27;;;;;;;-4.36;55.80;101912.13;4233224;28;20504;-63
2024/01/09 07:11:10;;;;;;;20.45;9.23;;;;;;;-4.33;56.00;101908.22;4231567;28;20039;-62
2024/01/09 07:13:13;;;;;;;17.17;8.77;;;;;;;-4.36;55.78;101907.94;4213268;28;20044;-62
2024/01/09 07:15:16;;;;;;;16.70;8.93;;;;;;;-4.36;55.48;101907.94;4232146;28;20472;-62
2024/01/09 07:17:21;;;;;;;18.77;9.80;;;;;;;-4.26;56.24;101910.63;4230483;28;20538;-62
2024/01/09 07:19:24;;;;;;;19.42;8.05;;;;;;;-4.23;56.77;101915.97;4232664;28;20050;-62
2024/01/09 07:21:27;;;;;;;17.25;8.77;;;;;;;-4.21;55.32;101905.97;4236037;27;20371;-62
2024/01/09 07:23:30;;;;;;;21.02;8.55;;;;;;;-4.31;55.27;101921.06;4239960;27;20042;-62
2024/01/09 07:25:32;;;;;;;22.90;9.32;;;;;;;-4.35;55.35;101917.34;4231620;28;20066;-64
2024/01/09 07:27:37;;;;;;;17.40;8.80;;;;;;;-4.28;55.51;101917.19;4235227;27;20035;-64
2024/01/09 07:29:40;;;;;;;16.15;7.93;;;;;;;-4.33;56.23;101920.03;4231643;28;20051;-62
2024/01/09 07:31:42;;;;;;;19.88;8.82;;;;;;;-4.34;56.40;101913.16;4232483;28;20123;-62
2024/01/09 07:33:45;;;;;;;18.58;9.13;;;;;;;-4.34;56.83;101918.22;4232600;28;20043;-68
2024/01/09 07:35:49;;;;;;;16.23;8.30;;;;;;;-4.40;57.33;101921.06;4232436;28;20047;-63
2024/01/09 07:37:52;;;;;;;22.83;10.15;;;;;;;-4.34;56.45;101921.66;4231361;28;20088;-63
2024/01/09 07:39:55;;;;;;;19.08;9.45;;;;;;;-4.26;55.80;101927.50;4232344;28;20039;-63
2024/01/09 07:41:58;;;;;;;19.33;8.73;;;;;;;-4.37;56.35;101916.28;4232449;28;20071;-61
2024/01/09 07:44:02;;;;;;;15.68;7.97;;;;;;;-4.33;55.42;101923.44;4231064;28;20443;-62
2024/01/09 07:46:05;;;;;;;16.23;8.15;;;;;;;-4.26;55.38;101922.41;4230323;28;20044;-63
2024/01/09 07:48:08;;;;;;;16.50;7.93;;;;;;;-4.32;55.41;101922.72;4231967;28;20078;-62
2024/01/09 07:50:11;;;;;;;17.08;9.40;;;;;;;-4.43;57.05;101930.91;4232162;28;20066;-63
2024/01/09 07:52:14;;;;;;;12.70;7.50;;;;;;;-4.33;56.79;101928.53;4232421;28;20065;-65
2024/01/09 07:54:17;;;;;;;18.05;9.90;;;;;;;-4.35;55.69;101926.59;4231278;28;20040;-62
2024/01/09 07:56:21;;;;;;;19.17;9.73;;;;;;;-4.36;55.09;101928.22;4230747;28;20108;-62
2024/01/09 07:58:24;;;;;;;20.58;8.85;;;;;;;-4.40;57.07;101932.09;4231861;27;20040;-62
2024/01/09 08:00:28;;;;;;;18.05;8.50;;;;;;;-4.30;56.65;101933.91;4231196;28;20509;-65
2024/01/09 08:02:31;;;;;;;18.52;9.20;;;;;;;-4.21;56.06;101924.63;4223830;28;20078;-64
2024/01/09 08:04:34;;;;;;;16.63;9.10;;;;;;;-4.12;55.62;101928.81;4226286;28;20097;-62
2024/01/09 08:06:37;;;;;;;15.60;9.25;;;;;;;-4.17;54.08;101935.13;4230437;28;20053;-63
2024/01/09 08:08:40;;;;;;;17.20;9.27;;;;;;;-4.17;54.20;101937.66;4241675;27;20396;-62
2024/01/09 08:10:43;;;;;;;20.20;9.40;;;;;;;-4.08;53.66;101934.34;4247641;27;20137;-62
2024/01/09 08:12:46;;;;;;;18.08;9.45;;;;;;;-4.21;55.25;101938.97;4248987;27;20050;-62
2024/01/09 08:14:49;;;;;;;19.15;9.25;;;;;;;-4.09;53.85;101934.19;4235497;27;20112;-62
2024/01/09 08:16:54;;;;;;;17.42;8.93;;;;;;;-3.97;53.93;101940.47;4231630;28;20039;-62
2024/01/09 08:18:57;;;;;;;16.77;8.90;;;;;;;-4.10;53.44;101929.88;4231733;28;20439;-63
2024/01/09 08:21:00;;;;;;;19.00;8.57;;;;;;;-4.00;53.75;101934.19;4231614;28;20035;-65
2024/01/09 08:23:03;;;;;;;16.65;8.50;;;;;;;-4.00;52.59;101927.47;4231688;28;20123;-65
2024/01/09 08:25:06;;;;;;;21.60;8.40;;;;;;;-4.00;53.10;101927.47;4231513;28;20043;-63
2024/01/09 08:27:09;;;;;;;17.65;8.63;;;;;;;-3.96;52.06;101932.09;4231264;28;20516;-65
2024/01/09 08:29:11;;;;;;;19.35;8.75;;;;;;;-4.02;52.91;101936.59;4229667;28;20051;-66
2024/01/09 08:31:14;;;;;;;16.90;8.50;;;;;;;-3.98;52.36;101933.59;4230720;28;20113;-64
2024/01/09 08:33:19;;;;;;;15.07;7.75;;;;;;;-4.03;52.80;101932.25;4230963;28;20112;-63
2024/01/09 08:35:26;;;;;;;16.60;8.80;;;;;;;-3.97;52.15;101937.94;4231574;28;20489;-64
2024/01/09 08:37:29;;;;;;;15.63;8.60;;;;;;;-3.78;51.94;101937.13;4229833;28;20039;-65
2024/01/09 08:39:31;;;;;;;15.50;8.48;;;;;;;-3.74;52.01;101939.22;4228893;27;20465;-63
2024/01/09 08:41:34;;;;;;;18.58;9.05;;;;;;;-3.64;51.19;101933.38;4231523;27;20071;-63
2024/01/09 08:43:37;;;;;;;19.10;8.90;;;;;;;-3.74;50.98;101935.06;4231395;28;20055;-63
2024/01/09 08:45:40;;;;;;;16.55;8.38;;;;;;;-3.81;51.95;101937.75;4230527;28;20058;-63
2024/01/09 08:47:44;;;;;;;17.92;8.88;;;;;;;-3.70;50.87;101933.69;4229995;28;20474;-63
2024/01/09 08:49:47;;;;;;;24.70;9.65;;;;;;;-3.76;52.12;101941.63;4241926;27;20035;-63
2024/01/09 08:51:51;;;;;;;16.38;8.73;;;;;;;-3.78;51.33;101935.50;4247107;27;20042;-62
2024/01/09 08:53:55;;;;;;;18.15;8.23;;;;;;;-3.79;50.98;101935.38;4248427;27;20088;-63
2024/01/09 08:55:57;;;;;;;18.70;9.48;;;;;;;-3.78;50.93;101932.06;4245905;27;20039;-62
2024/01/09 08:58:00;;;;;;;17.13;8.52;;;;;;;-3.78;51.90;101937.13;4229214;28;20122;-61
2024/01/09 09:00:04;;;;;;;15.57;8.07;;;;;;;-3.71;51.14;101939.50;4203053;27;20554;-62
2024/01/09 09:02:09;;;;;;;16.88;8.75;;;;;;;-3.64;51.59;101935.94;4231008;28;20067;-61
2024/01/09 09:04:12;;;;;;;17.20;9.35;;;;;;;-3.31;50.23;101930.59;4229432;28;20088;-62
2024/01/09 09:06:17;;;;;;;16.98;8.50;;;;;;;-3.47;50.35;101935.00;4237378;27;20049;-62
2024/01/09 09:08:21;;;;;;;15.18;8.27;;;;;;;-3.31;49.87;101922.97;4229780;28;20520;-63
2024/01/09 09:10:24;;;;;;;18.50;8.25;;;;;;;-3.58;50.90;101923.78;4229883;28;20048;-62
2024/01/09 09:12:28;;;;;;;19.55;8.25;;;;;;;-3.45;50.48;101928.41;4231109;28;20052;-62
2024/01/09 09:14:31;;;;;;;14.95;8.40;;;;;;;-3.16;49.31;101924.38;4229848;28;20040;-63
2024/01/09 09:16:33;;;;;;;14.23;7.30;;;;;;;-3.35;49.50;101920.88;4231191;28;20051;-63
2024/01/09 09:18:36;;;;;;;16.92;8.18;;;;;;;-3.23;49.50;101921.13;4230420;28;20553;-62
2024/01/09 09:20:38;;;;;;;16.17;8.48;;;;;;;-3.37;49.47;101927.47;4230660;28;20047;-63
2024/01/09 09:22:43;;;;;;;17.10;8.48;;;;;;;-3.28;49.47;101920.69;4230879;28;20081;-62
2024/01/09 09:24:46;;;;;;;14.07;8.18;;;;;;;-3.43;49.62;101926.88;4230081;28;20471;-61
2024/01/09 09:26:49;;;;;;;16.73;8.75;;;;;;;-3.36;50.14;101926.69;4230655;28;20039;-62